Time;durP1;ratioP1;P1;durP2;ratioP2;P2;SDS_P1;SDS_P2;PMS_P1;PMS_P2;Temp;Humidity;BMP_temperature;BMP_pressure;BME280_temperature;BME280_humidity;BME280_pressure;Samples;Min_cycle;Max_cycle;Signal;HPM_P1;HPM_P2
2022/01/01 00:02:04;;;;;;;10.63;7.03;;;;;;;-146.19;100.00;58918.88;5068379;28;20074;-59
2022/01/01 00:04:53;;;;;;;10.45;6.70;;;;;;;-146.19;100.00;58918.88;5074417;27;20084;-58
2022/01/01 00:07:22;;;;;;;9.82;7.32;;;;;;;-146.19;100.00;58918.88;5065447;27;20072;-59
2022/01/01 00:09:50;;;;;;;10.82;7.03;;;;;;;-146.19;100.00;58918.88;5065861;28;20091;-58
2022/01/01 00:12:19;;;;;;;8.05;6.38;;;;;;;-146.19;100.00;58918.88;5062952;27;20071;-56
2022/01/01 00:14:48;;;;;;;10.52;7.10;;;;;;;-146.19;100.00;58918.88;5061561;28;20072;-57
2022/01/01 00:17:16;;;;;;;10.23;7.30;;;;;;;-146.19;100.00;58918.88;5061964;27;20060;-58
2022/01/01 00:19:44;;;;;;;9.00;6.63;;;;;;;-146.19;100.00;58918.88;5061297;27;20451;-56
2022/01/01 00:22:14;;;;;;;12.13;7.30;;;;;;;-146.19;100.00;58918.88;5067008;28;20076;-58
2022/01/01 00:24:42;;;;;;;9.80;6.87;;;;;;;-146.19;100.00;58918.88;5060362;28;20056;-57
2022/01/01 00:27:11;;;;;;;9.55;6.68;;;;;;;-146.19;100.00;58918.88;5063775;28;20474;-58
2022/01/01 00:29:40;;;;;;;8.77;6.40;;;;;;;-146.19;100.00;58918.88;5057302;27;20143;-60
2022/01/01 00:32:08;;;;;;;8.77;6.38;;;;;;;-146.19;100.00;58918.88;5065131;28;20091;-56
2022/01/01 00:34:37;;;;;;;8.00;6.03;;;;;;;-146.19;100.00;58918.88;5079764;28;20067;-59
2022/01/01 00:37:06;;;;;;;7.57;5.82;;;;;;;-146.19;100.00;58918.88;5080927;28;20087;-57
2022/01/01 00:39:36;;;;;;;8.75;6.05;;;;;;;-146.19;100.00;58918.88;5083686;27;20063;-57
2022/01/01 00:42:05;;;;;;;7.83;5.40;;;;;;;-146.19;100.00;58918.88;5070174;27;20076;-53
2022/01/01 00:44:33;;;;;;;7.75;5.10;;;;;;;-146.19;100.00;58918.88;5072140;28;20687;-57
2022/01/01 00:47:02;;;;;;;8.48;5.82;;;;;;;-146.19;100.00;58918.88;5082049;27;20082;-59
2022/01/01 00:49:31;;;;;;;7.40;5.28;;;;;;;-146.19;100.00;58918.88;5079441;28;20067;-59
2022/01/01 00:51:59;;;;;;;8.00;5.40;;;;;;;-146.19;100.00;58918.88;5065914;28;20518;-57
2022/01/01 00:54:27;;;;;;;7.18;4.97;;;;;;;-146.19;100.00;58918.88;5066768;28;20071;-58
2022/01/01 00:56:58;;;;;;;8.13;5.45;;;;;;;-146.19;100.00;58918.88;5066994;28;20078;-52
2022/01/01 00:59:28;;;;;;;8.00;5.50;;;;;;;-146.19;100.00;58918.88;5061886;28;20064;-56
2022/01/01 01:01:56;;;;;;;7.37;5.13;;;;;;;-146.19;100.00;58918.88;5070502;28;20071;-57
2022/01/01 01:04:25;;;;;;;6.50;5.35;;;;;;;-146.19;100.00;58918.88;5080925;28;20087;-59
2022/01/01 01:06:54;;;;;;;8.30;5.93;;;;;;;-146.19;100.00;58918.88;5089286;28;20109;-55
2022/01/01 01:09:22;;;;;;;7.80;5.22;;;;;;;-146.19;100.00;58918.88;5085899;28;20466;-57
2022/01/01 01:11:52;;;;;;;7.80;5.63;;;;;;;-146.19;100.00;58918.88;5065681;28;20060;-53
2022/01/01 01:14:23;;;;;;;7.63;5.73;;;;;;;-146.19;100.00;58918.88;5066417;28;20063;-54
2022/01/01 01:16:54;;;;;;;7.10;5.50;;;;;;;-146.19;100.00;58918.88;5070057;28;20448;-54
2022/01/01 01:19:22;;;;;;;8.60;5.72;;;;;;;-146.19;100.00;58918.88;5079897;27;20080;-59
2022/01/01 01:21:51;;;;;;;8.15;5.63;;;;;;;-146.19;100.00;58918.88;5089437;28;20083;-60
2022/01/01 01:24:23;;;;;;;7.95;5.32;;;;;;;-146.19;100.00;58918.88;5066777;28;20099;-57
2022/01/01 01:26:53;;;;;;;7.78;5.53;;;;;;;-146.19;100.00;58918.88;5076285;28;20641;-55
2022/01/01 01:29:24;;;;;;;9.75;6.38;;;;;;;-146.19;100.00;58918.88;5078395;28;20064;-57
2022/01/01 01:31:52;;;;;;;7.18;5.13;;;;;;;-146.19;100.00;58918.88;5079768;28;20470;-57
2022/01/01 01:34:21;;;;;;;8.63;5.35;;;;;;;-146.19;100.00;58918.88;5080050;27;20471;-52
2022/01/01 01:36:49;;;;;;;7.15;5.93;;;;;;;-146.19;100.00;58918.88;5082293;28;21517;-55
2022/01/01 01:39:18;;;;;;;8.52;5.97;;;;;;;-146.19;100.00;58918.88;5064729;27;20068;-57
2022/01/01 01:41:47;;;;;;;7.88;5.80;;;;;;;-146.19;100.00;58918.88;5058083;28;20075;-52
2022/01/01 01:44:29;;;;;;;7.95;5.75;;;;;;;-146.19;100.00;58918.88;5055866;28;20064;-54
2022/01/01 01:47:00;;;;;;;8.65;6.07;;;;;;;-146.19;100.00;58918.88;5061440;28;20064;-56
2022/01/01 01:49:29;;;;;;;10.75;6.00;;;;;;;-146.19;100.00;58918.88;5063073;27;20076;-54
2022/01/01 01:51:57;;;;;;;8.88;5.78;;;;;;;-146.19;100.00;58918.88;5060298;28;20557;-55
2022/01/01 01:54:26;;;;;;;6.43;5.22;;;;;;;-146.19;100.00;58918.88;5063274;27;20064;-58
2022/01/01 01:56:55;;;;;;;8.13;5.80;;;;;;;-146.19;100.00;58918.88;5076436;27;20067;-54
2022/01/01 01:59:24;;;;;;;6.93;5.47;;;;;;;-146.19;100.00;58918.88;5087744;28;20443;-58
2022/01/01 02:01:54;;;;;;;7.22;5.43;;;;;;;-146.19;100.00;58918.88;5084124;28;20067;-57
2022/01/01 02:04:22;;;;;;;6.50;5.10;;;;;;;-146.19;100.00;58918.88;5081897;27;20079;-59
2022/01/01 02:06:51;;;;;;;7.10;5.22;;;;;;;-146.19;100.00;58918.88;5081856;28;20072;-54
2022/01/01 02:09:20;;;;;;;7.45;5.50;;;;;;;-146.19;100.00;58918.88;5062106;28;20076;-57
2022/01/01 02:11:48;;;;;;;7.78;5.40;;;;;;;-146.19;100.00;58918.88;5073857;27;20082;-60
2022/01/01 02:14:23;;;;;;;8.00;5.28;;;;;;;-146.19;100.00;58918.88;5073960;28;20071;-57
2022/01/01 02:17:10;;;;;;;7.90;5.38;;;;;;;-146.19;100.00;58918.88;5064967;27;20079;-53
2022/01/01 02:19:48;;;;;;;7.97;5.32;;;;;;;-146.19;100.00;58918.88;5077419;28;20091;-56
2022/01/01 02:22:18;;;;;;;7.82;4.82;;;;;;;-146.19;100.00;58918.88;5056844;28;20067;-58
2022/01/01 02:24:47;;;;;;;6.88;5.32;;;;;;;-146.19;100.00;58918.88;5060370;28;20682;-58
2022/01/01 02:27:15;;;;;;;7.82;5.45;;;;;;;-146.19;100.00;58918.88;5062668;28;20117;-53
2022/01/01 02:29:43;;;;;;;6.90;5.30;;;;;;;-146.19;100.00;58918.88;5070583;27;20067;-59
2022/01/01 02:32:14;;;;;;;7.60;5.30;;;;;;;-146.19;100.00;58918.88;5080736;28;20068;-48
2022/01/01 02:34:43;;;;;;;;;;;;;;;-146.19;100.00;58918.88;5078147;28;20064;-59
2022/01/01 02:37:11;;;;;;;8.07;5.13;;;;;;;-146.19;100.00;58918.88;5066009;28;20061;-54
2022/01/01 02:39:41;;;;;;;8.05;5.75;;;;;;;-146.19;100.00;58918.88;5065016;27;20075;-57
2022/01/01 02:42:12;;;;;;;8.60;5.50;;;;;;;-146.19;100.00;58918.88;5063449;28;21609;-56
2022/01/01 02:44:43;;;;;;;7.97;5.40;;;;;;;-146.19;100.00;58918.88;5063328;28;21069;-56
2022/01/01 02:47:11;;;;;;;;;;;;;;;-146.19;100.00;58918.88;5070802;28;20094;-55
2022/01/01 02:49:40;;;;;;;7.50;5.35;;;;;;;-146.19;100.00;58918.88;5081017;28;19974;-55
2022/01/01 02:52:09;;;;;;;7.97;5.53;;;;;;;-146.19;100.00;58918.88;5073558;28;20084;-52
2022/01/01 02:54:37;;;;;;;9.15;5.63;;;;;;;-146.19;100.00;58918.88;5062296;27;20666;-55
2022/01/01 02:57:07;;;;;;;7.68;5.45;;;;;;;-146.19;100.00;58918.88;5063762;27;20060;-52
2022/01/01 02:59:35;;;;;;;7.55;5.65;;;;;;;-146.19;100.00;58918.88;5074670;28;20561;-57
2022/01/01 03:02:04;;;;;;;8.70;5.75;;;;;;;-146.19;100.00;58918.88;5078781;27;20068;-56
2022/01/01 03:04:32;;;;;;;7.97;5.70;;;;;;;-146.19;100.00;58918.88;5065645;27;20083;-54
2022/01/01 03:07:01;;;;;;;7.45;5.38;;;;;;;-146.19;100.00;58918.88;5083483;28;20106;-56
2022/01/01 03:09:34;;;;;;;9.85;5.95;;;;;;;-146.19;100.00;58918.88;5082809;28;20091;-51
2022/01/01 03:12:04;;;;;;;9.48;5.65;;;;;;;-146.19;100.00;58918.88;5085701;28;20073;-54
2022/01/01 03:14:34;;;;;;;6.47;5.47;;;;;;;-146.19;100.00;58918.88;5083075;28;20052;-55
2022/01/01 03:17:03;;;;;;;8.35;5.60;;;;;;;-146.19;100.00;58918.88;5076218;28;20534;-49
2022/01/01 03:19:32;;;;;;;7.53;6.03;;;;;;;-146.19;100.00;58918.88;5065467;28;20083;-54
2022/01/01 03:22:01;;;;;;;7.00;5.22;;;;;;;-146.19;100.00;58918.88;5087124;28;20075;-53
2022/01/01 03:24:29;;;;;;;7.80;6.03;;;;;;;-146.19;100.00;58918.88;5064063;28;20064;-53
2022/01/01 03:26:58;;;;;;;7.68;5.63;;;;;;;-146.19;100.00;58918.88;5075703;28;20071;-56
2022/01/01 03:29:28;;;;;;;7.28;5.38;;;;;;;-146.19;100.00;58918.88;5089120;28;20067;-57
2022/01/01 03:31:59;;;;;;;8.73;5.85;;;;;;;-146.19;100.00;58918.88;5078601;28;20541;-55
2022/01/01 03:34:27;;;;;;;7.50;5.70;;;;;;;-146.19;100.00;58918.88;5059797;28;20553;-55
2022/01/01 03:36:56;;;;;;;7.90;6.13;;;;;;;-146.19;100.00;58918.88;5087657;28;20157;-55
2022/01/01 03:39:27;;;;;;;8.10;6.00;;;;;;;-146.19;100.00;58918.88;5082703;27;20078;-54
2022/01/01 03:41:55;;;;;;;8.95;5.88;;;;;;;-146.19;100.00;58918.88;5066302;28;20115;-59
2022/01/01 03:44:23;;;;;;;7.63;5.95;;;;;;;-146.19;100.00;58918.88;5056275;28;20085;-56
2022/01/01 03:46:58;;;;;;;10.32;6.05;;;;;;;-146.19;100.00;58918.88;5060699;28;20060;-53
2022/01/01 03:49:28;;;;;;;9.80;6.20;;;;;;;-146.19;100.00;58918.88;5058029;28;20072;-53
2022/01/01 03:51:58;;;;;;;9.23;5.80;;;;;;;-146.19;100.00;58918.88;5063545;28;20087;-54
2022/01/01 03:54:26;;;;;;;7.75;5.70;;;;;;;-146.19;100.00;58918.88;5078954;28;20064;-53
2022/01/01 03:56:56;;;;;;;7.68;5.85;;;;;;;-146.19;100.00;58918.88;5083371;28;20055;-57
2022/01/01 03:59:25;;;;;;;8.73;6.10;;;;;;;-146.19;100.00;58918.88;5073275;28;20072;-54
2022/01/01 04:01:54;;;;;;;8.80;5.93;;;;;;;-146.19;100.00;58918.88;5057154;28;20068;-57
2022/01/01 04:04:25;;;;;;;8.50;6.00;;;;;;;-146.19;100.00;58918.88;5061709;28;20471;-58
2022/01/01 04:06:56;;;;;;;10.45;6.45;;;;;;;-146.19;100.00;58918.88;5060708;28;20534;-54
2022/01/01 04:09:24;;;;;;;8.43;5.90;;;;;;;-146.19;100.00;58918.88;5061667;28;20079;-52
2022/01/01 04:11:52;;;;;;;8.63;5.82;;;;;;;-146.19;100.00;58918.88;5074025;28;20091;-54
2022/01/01 04:14:21;;;;;;;7.53;5.88;;;;;;;-146.19;100.00;58918.88;5072587;28;20194;-53
2022/01/01 04:16:51;;;;;;;9.93;5.85;;;;;;;-146.19;100.00;58918.88;5061435;28;20467;-56
2022/01/01 04:19:23;;;;;;;8.95;5.80;;;;;;;-146.19;100.00;58918.88;5062071;28;20084;-55
2022/01/01 04:21:51;;;;;;;7.55;5.88;;;;;;;-146.19;100.00;58918.88;5079754;28;20567;-55
2022/01/01 04:24:21;;;;;;;8.20;6.00;;;;;;;-146.19;100.00;58918.88;5063500;28;20087;-57
2022/01/01 04:26:50;;;;;;;8.60;6.15;;;;;;;-146.19;100.00;58918.88;5068921;27;20067;-57
2022/01/01 04:29:18;;;;;;;7.28;5.78;;;;;;;-146.19;100.00;58918.88;5087287;27;20064;-58
2022/01/01 04:31:46;;;;;;;7.78;5.97;;;;;;;-146.19;100.00;58918.88;5082760;28;20068;-54
2022/01/01 04:34:15;;;;;;;8.00;5.32;;;;;;;-146.19;100.00;58918.88;5066290;28;20084;-55
2022/01/01 04:36:49;;;;;;;7.40;5.72;;;;;;;-146.19;100.00;58918.88;5064983;28;20079;-53
2022/01/01 04:39:17;;;;;;;7.30;5.55;;;;;;;-146.19;100.00;58918.88;5077779;28;20071;-54
2022/01/01 04:41:47;;;;;;;8.07;5.70;;;;;;;-146.19;100.00;58918.88;5085166;27;20074;-53
2022/01/01 04:44:15;;;;;;;10.40;6.07;;;;;;;-146.19;100.00;58918.88;5071068;27;20064;-52
2022/01/01 04:46:44;;;;;;;6.82;5.15;;;;;;;-146.19;100.00;58918.88;5060958;28;20075;-53
2022/01/01 04:49:12;;;;;;;8.98;5.50;;;;;;;-146.19;100.00;58918.88;5066842;28;20150;-52
2022/01/01 04:51:41;;;;;;;7.53;5.38;;;;;;;-146.19;100.00;58918.88;5062638;28;20075;-54
2022/01/01 04:54:15;;;;;;;6.15;5.25;;;;;;;-146.19;100.00;58918.88;5064194;28;20561;-57
2022/01/01 04:56:45;;;;;;;7.55;5.45;;;;;;;-146.19;100.00;58918.88;5076232;28;20076;-57
2022/01/01 04:59:16;;;;;;;7.13;5.32;;;;;;;-146.19;100.00;58918.88;5078547;27;20070;-57
2022/01/01 05:01:45;;;;;;;6.68;5.13;;;;;;;-146.19;100.00;58918.88;5066662;27;20067;-50
2022/01/01 05:04:15;;;;;;;8.52;5.35;;;;;;;-146.19;100.00;58918.88;5086876;28;20087;-54
2022/01/01 05:06:49;;;;;;;8.05;5.63;;;;;;;-146.19;100.00;58918.88;5086860;28;20075;-56
2022/01/01 05:09:17;;;;;;;8.60;5.60;;;;;;;-146.19;100.00;58918.88;5084404;28;20109;-55
2022/01/01 05:11:45;;;;;;;7.78;5.80;;;;;;;-146.19;100.00;58918.88;5083830;28;20056;-50
2022/01/01 05:14:16;;;;;;;7.47;5.20;;;;;;;-146.19;100.00;58918.88;5082605;28;20087;-56
2022/01/01 05:16:45;;;;;;;7.38;5.28;;;;;;;-146.19;100.00;58918.88;5081528;27;20072;-55
2022/01/01 05:19:14;;;;;;;7.55;5.60;;;;;;;-146.19;100.00;58918.88;5064230;28;20340;-55
2022/01/01 05:21:42;;;;;;;8.98;5.45;;;;;;;-146.19;100.00;58918.88;5063247;28;20076;-58
2022/01/01 05:24:15;;;;;;;9.27;5.68;;;;;;;-146.19;100.00;58918.88;5077574;27;20091;-55
2022/01/01 05:26:44;;;;;;;7.30;5.40;;;;;;;-146.19;100.00;58918.88;5068150;28;20665;-52
2022/01/01 05:29:12;;;;;;;6.65;5.18;;;;;;;-146.19;100.00;58918.88;5061670;28;20071;-56
2022/01/01 05:31:42;;;;;;;7.30;6.00;;;;;;;-146.19;100.00;58918.88;5059882;28;20855;-54
2022/01/01 05:34:10;;;;;;;7.30;5.80;;;;;;;-146.19;100.00;58918.88;5064273;28;20142;-52
2022/01/01 05:36:38;;;;;;;6.82;5.30;;;;;;;-146.19;100.00;58918.88;5062324;28;20071;-52
2022/01/01 05:39:08;;;;;;;7.05;4.97;;;;;;;-146.19;100.00;58918.88;5060314;28;20065;-53
2022/01/01 05:41:36;;;;;;;7.40;5.60;;;;;;;-146.19;100.00;58918.88;5070630;28;20470;-53
2022/01/01 05:44:05;;;;;;;6.95;5.30;;;;;;;-146.19;100.00;58918.88;5075169;27;20060;-53
2022/01/01 05:46:34;;;;;;;7.10;5.35;;;;;;;-146.19;100.00;58918.88;5065718;28;20553;-50
2022/01/01 05:49:05;;;;;;;7.80;5.68;;;;;;;-146.19;100.00;58918.88;5072277;28;20526;-53
2022/01/01 05:51:33;;;;;;;8.23;5.65;;;;;;;-146.19;100.00;58918.88;5085428;28;20068;-54
2022/01/01 05:54:01;;;;;;;7.68;5.65;;;;;;;-146.19;100.00;58918.88;5084639;28;20530;-57
2022/01/01 05:56:30;;;;;;;8.77;5.70;;;;;;;-146.19;100.00;58918.88;5073796;28;20071;-53
2022/01/01 05:58:58;;;;;;;9.68;5.47;;;;;;;-146.19;100.00;58918.88;5063169;28;20064;-56
2022/01/01 06:01:26;;;;;;;9.10;5.57;;;;;;;-146.19;100.00;58918.88;5061821;27;20080;-55
2022/01/01 06:03:55;;;;;;;7.82;5.85;;;;;;;-146.19;100.00;58918.88;5066504;28;20072;-58
2022/01/01 06:06:25;;;;;;;6.75;5.60;;;;;;;-146.19;100.00;58918.88;5062585;28;20068;-49
2022/01/01 06:09:00;;;;;;;7.20;5.35;;;;;;;-146.19;100.00;58918.88;5076850;28;20063;-52
2022/01/01 06:11:28;;;;;;;8.32;5.60;;;;;;;-146.19;100.00;58918.88;5074129;28;20115;-57
2022/01/01 06:13:56;;;;;;;8.32;5.68;;;;;;;-146.19;100.00;58918.88;5059371;27;20082;-58
2022/01/01 06:16:25;;;;;;;7.80;5.63;;;;;;;-146.19;100.00;58918.88;5061949;28;20072;-54
2022/01/01 06:18:54;;;;;;;8.43;6.18;;;;;;;-146.19;100.00;58918.88;5085480;28;20079;-53
2022/01/01 06:21:22;;;;;;;7.40;5.53;;;;;;;-146.19;100.00;58918.88;5082831;28;20063;-54
2022/01/01 06:23:52;;;;;;;7.43;5.68;;;;;;;-146.19;100.00;58918.88;5083588;28;20044;-56
2022/01/01 06:26:20;;;;;;;7.13;5.17;;;;;;;-146.19;100.00;58918.88;5089039;27;20059;-59
2022/01/01 06:28:48;;;;;;;7.30;5.57;;;;;;;-146.19;100.00;58918.88;5079330;28;20068;-56
2022/01/01 06:31:17;;;;;;;8.77;6.03;;;;;;;-146.19;100.00;58918.88;5065703;28;20338;-56
2022/01/01 06:33:45;;;;;;;8.82;5.78;;;;;;;-146.19;100.00;58918.88;5083085;28;20066;-54
2022/01/01 06:36:15;;;;;;;8.40;5.50;;;;;;;-146.19;100.00;58918.88;5083806;28;20075;-54
2022/01/01 06:38:44;;;;;;;7.47;5.95;;;;;;;-146.19;100.00;58918.88;5084604;27;20078;-55
2022/01/01 06:41:15;;;;;;;7.28;5.82;;;;;;;-146.19;100.00;58918.88;5086213;28;20583;-53
2022/01/01 06:43:44;;;;;;;9.07;5.95;;;;;;;-146.19;100.00;58918.88;5086119;27;20063;-53
2022/01/01 06:46:12;;;;;;;7.00;5.53;;;;;;;-146.19;100.00;58918.88;5090013;28;20079;-52
2022/01/01 06:48:41;;;;;;;7.95;5.88;;;;;;;-146.19;100.00;58918.88;5081391;28;20075;-52
2022/01/01 06:51:09;;;;;;;7.00;5.57;;;;;;;-146.19;100.00;58918.88;5065337;28;20538;-52
2022/01/01 06:53:37;;;;;;;7.60;5.60;;;;;;;-146.19;100.00;58918.88;5061479;28;20068;-57
2022/01/01 06:56:06;;;;;;;7.18;5.38;;;;;;;-146.19;100.00;58918.88;5060140;28;20135;-52
2022/01/01 06:58:37;;;;;;;6.78;5.55;;;;;;;-146.19;100.00;58918.88;5062290;28;20167;-55
2022/01/01 07:01:06;;;;;;;6.88;5.35;;;;;;;-146.19;100.00;58918.88;5081807;28;20076;-52
2022/01/01 07:03:35;;;;;;;7.75;5.65;;;;;;;-146.19;100.00;58918.88;5081662;28;20072;-59
2022/01/01 07:06:03;;;;;;;7.90;5.75;;;;;;;-146.19;100.00;58918.88;5064983;28;20090;-58
2022/01/01 07:08:32;;;;;;;6.95;6.00;;;;;;;-146.19;100.00;58918.88;5071377;28;20066;-54
2022/01/01 07:11:00;;;;;;;7.82;5.90;;;;;;;-146.19;100.00;58918.88;5085336;28;20059;-53
2022/01/01 07:13:29;;;;;;;8.50;5.60;;;;;;;-146.19;100.00;58918.88;5084522;27;20083;-52
2022/01/01 07:15:58;;;;;;;8.13;5.93;;;;;;;-146.19;100.00;58918.88;5087642;28;20111;-58
2022/01/01 07:18:27;;;;;;;7.60;5.90;;;;;;;-146.19;100.00;58918.88;5085242;28;20063;-54
2022/01/01 07:20:55;;;;;;;7.85;5.45;;;;;;;-146.19;100.00;58918.88;5066023;28;20529;-57
2022/01/01 07:23:24;;;;;;;6.95;5.28;;;;;;;-146.19;100.00;58918.88;5059675;28;20072;-57
2022/01/01 07:25:52;;;;;;;7.10;5.82;;;;;;;-146.19;100.00;58918.88;5067131;28;20172;-52
2022/01/01 07:28:20;;;;;;;8.43;5.60;;;;;;;-146.19;100.00;58918.88;5085637;28;20090;-55
2022/01/01 07:30:49;;;;;;;7.97;5.18;;;;;;;-146.19;100.00;58918.88;5058600;28;20255;-57
2022/01/01 07:33:18;;;;;;;10.90;5.60;;;;;;;-146.19;100.00;58918.88;5061823;28;20075;-54
2022/01/01 07:35:47;;;;;;;7.65;5.57;;;;;;;-146.19;100.00;58918.88;5060546;28;20265;-53
2022/01/01 07:38:15;;;;;;;7.03;5.43;;;;;;;-146.19;100.00;58918.88;5060532;28;20696;-52
2022/01/01 07:40:44;;;;;;;7.65;5.18;;;;;;;-146.19;100.00;58918.88;5058493;28;20060;-54
2022/01/01 07:43:13;;;;;;;8.25;5.47;;;;;;;-146.19;100.00;58918.88;5064604;28;20095;-53
2022/01/01 07:45:41;;;;;;;6.75;5.15;;;;;;;-146.19;100.00;58918.88;5078768;28;20072;-59
2022/01/01 07:48:10;;;;;;;6.70;5.07;;;;;;;-146.19;100.00;58918.88;5066307;28;20083;-53
2022/01/01 07:50:40;;;;;;;5.55;4.63;;;;;;;-146.19;100.00;58918.88;5060646;28;20068;-58
2022/01/01 07:53:10;;;;;;;6.85;5.10;;;;;;;-146.19;100.00;58918.88;5061184;28;20075;-52
2022/01/01 07:55:38;;;;;;;6.30;5.03;;;;;;;-146.19;100.00;58918.88;5058629;28;20081;-56
2022/01/01 07:58:08;;;;;;;7.07;5.32;;;;;;;-146.19;100.00;58918.88;5060689;28;20099;-55
2022/01/01 08:00:36;;;;;;;6.72;5.10;;;;;;;-146.19;100.00;58918.88;5077861;28;20072;-56
2022/01/01 08:03:05;;;;;;;8.98;5.38;;;;;;;-146.19;100.00;58918.88;5087764;27;20075;-52
2022/01/01 08:05:33;;;;;;;5.68;4.95;;;;;;;-146.19;100.00;58918.88;5076247;28;20072;-53
2022/01/01 08:08:04;;;;;;;7.40;4.90;;;;;;;-146.19;100.00;58918.88;5067599;28;20094;-50
2022/01/01 08:10:34;;;;;;;6.50;4.85;;;;;;;-146.19;100.00;58918.88;5065999;28;20080;-49
2022/01/01 08:13:03;;;;;;;6.22;5.00;;;;;;;-146.19;100.00;58918.88;5084666;28;20088;-51
2022/01/01 08:15:32;;;;;;;8.68;5.32;;;;;;;-146.19;100.00;58918.88;5084805;27;20067;-54
2022/01/01 08:18:00;;;;;;;8.38;4.88;;;;;;;-146.19;100.00;58918.88;5086275;28;20073;-54
2022/01/01 08:20:38;;;;;;;8.30;5.18;;;;;;;-146.19;100.00;58918.88;5073477;28;20075;-54
2022/01/01 08:23:08;;;;;;;6.97;4.57;;;;;;;-146.19;100.00;58918.88;5068856;28;20087;-57
2022/01/01 08:25:37;;;;;;;6.72;5.38;;;;;;;-146.19;100.00;58918.88;5085131;27;20071;-55
2022/01/01 08:28:06;;;;;;;7.90;4.97;;;;;;;-146.19;100.00;58918.88;5087377;28;20087;-53
2022/01/01 08:30:36;;;;;;;6.43;4.90;;;;;;;-146.19;100.00;58918.88;5066395;28;20072;-52
2022/01/01 08:33:05;;;;;;;;;;;;;;;-146.19;100.00;58918.88;5081917;28;20091;-56
2022/01/01 08:35:35;;;;;;;6.35;5.00;;;;;;;-146.19;100.00;58918.88;5073710;28;20405;-57
2022/01/01 08:38:05;;;;;;;7.80;4.95;;;;;;;-146.19;100.00;58918.88;5063222;27;20067;-56
2022/01/01 08:40:35;;;;;;;5.87;4.97;;;;;;;-146.19;100.00;58918.88;5063441;28;20076;-55
2022/01/01 08:43:03;;;;;;;7.38;5.00;;;;;;;-146.19;100.00;58918.88;5066879;28;20107;-54
2022/01/01 08:45:34;;;;;;;6.03;4.90;;;;;;;-146.19;100.00;58918.88;5084827;28;20455;-52
2022/01/01 08:48:02;;;;;;;5.72;5.00;;;;;;;-146.19;100.00;58918.88;5090596;27;20541;-55
2022/01/01 08:50:31;;;;;;;5.72;4.75;;;;;;;-146.19;100.00;58918.88;5076323;27;20071;-55
2022/01/01 08:52:59;;;;;;;8.40;5.60;;;;;;;-146.19;100.00;58918.88;5064784;28;20060;-50
2022/01/01 08:55:29;;;;;;;9.98;7.95;;;;;;;-146.19;100.00;58918.88;5065106;28;20486;-50
2022/01/01 08:57:58;;;;;;;7.03;5.60;;;;;;;-146.19;100.00;58918.88;5064378;28;20076;-51
2022/01/01 09:00:47;;;;;;;5.95;5.03;;;;;;;-146.19;100.00;58918.88;5088895;28;20556;-54
2022/01/01 09:03:15;;;;;;;7.55;5.68;;;;;;;-146.19;100.00;58918.88;5092818;28;20071;-57
2022/01/01 09:05:44;;;;;;;8.32;5.70;;;;;;;-146.19;100.00;58918.88;5073685;28;20071;-52
2022/01/01 09:08:32;;;;;;;8.20;5.75;;;;;;;-146.19;100.00;58918.88;5062580;28;20071;-52
2022/01/01 09:11:01;;;;;;;6.60;5.45;;;;;;;-146.19;100.00;58918.88;5070874;28;20539;-59
2022/01/01 09:13:31;;;;;;;6.22;4.95;;;;;;;-146.19;100.00;58918.88;5079592;28;20084;-56
2022/01/01 09:16:00;;;;;;;5.95;5.00;;;;;;;-146.19;100.00;58918.88;5064711;28;20087;-59
2022/01/01 09:18:29;;;;;;;7.28;5.00;;;;;;;-146.19;100.00;58918.88;5062965;28;20732;-58
2022/01/01 09:20:57;;;;;;;6.65;4.90;;;;;;;-146.19;100.00;58918.88;5074898;28;20124;-57
2022/01/01 09:23:27;;;;;;;9.93;5.32;;;;;;;-146.19;100.00;58918.88;5077047;28;20056;-59
2022/01/01 09:25:56;;;;;;;6.20;4.88;;;;;;;-146.19;100.00;58918.88;5065934;28;20072;-55
2022/01/01 09:28:24;;;;;;;6.25;4.88;;;;;;;-146.19;100.00;58918.88;5079915;28;20076;-59
2022/01/01 09:30:54;;;;;;;6.07;4.47;;;;;;;-146.19;100.00;58918.88;5067117;28;20573;-60
2022/01/01 09:33:23;;;;;;;6.83;4.30;;;;;;;-146.19;100.00;58918.88;5059217;27;20147;-57
2022/01/01 09:35:52;;;;;;;5.93;4.40;;;;;;;-146.19;100.00;58918.88;5080984;28;20602;-58
2022/01/01 09:38:20;;;;;;;5.65;4.22;;;;;;;-146.19;100.00;58918.88;5075489;28;20068;-59
2022/01/01 09:40:49;;;;;;;6.75;4.40;;;;;;;-146.19;100.00;58918.88;5064014;27;20072;-52
2022/01/01 09:43:17;;;;;;;5.43;4.53;;;;;;;-146.19;100.00;58918.88;5066150;28;20072;-58
2022/01/01 09:45:46;;;;;;;5.15;4.20;;;;;;;-146.19;100.00;58918.88;5063883;28;20080;-57
2022/01/01 09:48:18;;;;;;;5.88;4.68;;;;;;;-146.19;100.00;58918.88;5063620;28;20072;-56
2022/01/01 09:50:49;;;;;;;5.85;4.63;;;;;;;-146.19;100.00;58918.88;5062190;28;20538;-56
2022/01/01 09:53:18;;;;;;;5.25;4.40;;;;;;;-146.19;100.00;58918.88;5070221;28;20750;-56
2022/01/01 09:55:46;;;;;;;6.97;4.65;;;;;;;-146.19;100.00;58918.88;5075697;27;20068;-59
2022/01/01 09:58:15;;;;;;;7.80;5.00;;;;;;;-146.19;100.00;58918.88;5066388;28;20088;-57
2022/01/01 10:00:43;;;;;;;6.78;4.82;;;;;;;-146.19;100.00;58918.88;5082867;28;21447;-59
2022/01/01 10:03:13;;;;;;;7.03;4.93;;;;;;;-146.19;100.00;58918.88;5070680;28;20083;-59
2022/01/01 10:06:08;;;;;;;6.22;4.57;;;;;;;-146.19;100.00;58918.88;5074577;27;20068;-58
2022/01/01 10:08:37;;;;;;;7.75;4.93;;;;;;;-146.19;100.00;58918.88;5066076;28;20464;-55
2022/01/01 10:11:06;;;;;;;6.70;4.50;;;;;;;-146.19;100.00;58918.88;5084266;27;20079;-59
2022/01/01 10:13:36;;;;;;;5.60;4.10;;;;;;;-146.19;100.00;58918.88;5080466;28;20054;-57
2022/01/01 10:16:07;;;;;;;6.70;4.80;;;;;;;-146.19;100.00;58918.88;5068217;28;20083;-56
2022/01/01 10:18:37;;;;;;;6.15;4.35;;;;;;;-146.19;100.00;58918.88;5062469;28;20072;-58
2022/01/01 10:21:08;;;;;;;7.32;4.50;;;;;;;-146.19;100.00;58918.88;5059676;28;20456;-59
2022/01/01 10:23:39;;;;;;;6.78;4.80;;;;;;;-146.19;100.00;58918.88;5066300;28;20083;-56
2022/01/01 10:29:11;;;;;;;6.90;4.60;;;;;;;-146.19;100.00;58918.88;5083294;28;20072;-58
2022/01/01 10:31:45;;;;;;;9.15;4.63;;;;;;;-146.19;100.00;58918.88;5079600;28;20064;-60
2022/01/01 10:34:15;;;;;;;7.05;4.55;;;;;;;-146.19;100.00;58918.88;5065632;28;20493;-57
2022/01/01 10:36:48;;;;;;;5.88;4.78;;;;;;;-146.19;100.00;58918.88;5078634;28;20777;-58
2022/01/01 10:39:21;;;;;;;7.38;4.90;;;;;;;-146.19;100.00;58918.88;5080373;28;20064;-54
2022/01/01 10:41:51;;;;;;;6.50;4.43;;;;;;;-146.19;100.00;58918.88;5069993;28;20094;-57
2022/01/01 10:44:27;;;;;;;7.30;4.53;;;;;;;-146.19;100.00;58918.88;5071264;28;20063;-57
2022/01/01 10:46:56;;;;;;;6.05;4.80;;;;;;;-146.19;100.00;58918.88;5077332;28;20059;-54
2022/01/01 10:52:21;;;;;;;7.72;5.03;;;;;;;-146.19;100.00;58918.88;5084344;27;20600;-59
2022/01/01 10:54:51;;;;;;;6.75;4.50;;;;;;;-146.19;100.00;58918.88;5063254;28;20473;-60
2022/01/01 10:57:23;;;;;;;7.30;4.60;;;;;;;-146.19;100.00;58918.88;5063808;28;20095;-57
2022/01/01 10:59:54;;;;;;;6.45;4.90;;;;;;;-146.19;100.00;58918.88;5061082;28;20471;-57
2022/01/01 11:02:25;;;;;;;7.68;4.78;;;;;;;-146.19;100.00;58918.88;5061391;28;20064;-56
2022/01/01 11:04:53;;;;;;;8.13;4.75;;;;;;;-146.19;100.00;58918.88;5061773;28;20071;-53
2022/01/01 11:07:29;;;;;;;7.03;4.65;;;;;;;-146.19;100.00;58918.88;5063247;28;20092;-55
2022/01/01 11:09:59;;;;;;;6.88;4.80;;;;;;;-146.19;100.00;58918.88;5062634;28;20107;-57
2022/01/01 11:12:29;;;;;;;8.03;5.07;;;;;;;-146.19;100.00;58918.88;5082396;28;20738;-58
2022/01/01 11:14:59;;;;;;;6.88;4.63;;;;;;;-146.19;100.00;58918.88;5068981;28;20064;-55
2022/01/01 11:17:27;;;;;;;8.68;4.90;;;;;;;-146.19;100.00;58918.88;5068441;28;20064;-55
2022/01/01 11:19:56;;;;;;;6.05;4.50;;;;;;;-146.19;100.00;58918.88;5083711;27;20179;-54
2022/01/01 11:22:24;;;;;;;6.10;4.30;;;;;;;-146.19;100.00;58918.88;5081377;27;20078;-52
2022/01/01 11:24:55;;;;;;;5.65;4.35;;;;;;;-146.19;100.00;58918.88;5065327;28;20080;-58
2022/01/01 11:27:25;;;;;;;6.07;4.57;;;;;;;-146.19;100.00;58918.88;5079749;28;20083;-59